EAG5501 SBEG-SBBR
Flight info
| Callsign | EAG5501 |
|---|---|
| Flight time | 3h 21m |
| Altitude | 37000 |
| Route | GIKVI UZ6 EKEBA DCT ELISA |
| Aircraft | B738/M-SDE1FGHILORVWXY/HB1 |
Departure
| Time | 2026-05-06 14:44 |
|---|---|
| Airport | Eduardo Gomes International Airport (SBEG) |
Arrival
| Time | 2026-05-06 18:05 |
|---|---|
| Airport | Presidente Juscelino Kubitschek International Airport (SBBR) |
| Time | Latitude | Longitude | Altitude | Speed | Heading |
|---|---|---|---|---|---|
| 2026-05-06 14:39 | -3.03314 | -60.04668 | 272 ft | 4 kts | 4° |
| 2026-05-06 14:39 | -3.03337 | -60.04669 | 272 ft | 4 kts | 344° |
| 2026-05-06 14:39 | -3.03353 | -60.04655 | 272 ft | 4 kts | 284° |
| 2026-05-06 14:40 | -3.03355 | -60.04636 | 272 ft | 1 kts | 273° |
| 2026-05-06 14:40 | -3.03355 | -60.04633 | 272 ft | 0 kts | 273° |
| 2026-05-06 14:41 | -3.03355 | -60.04634 | 272 ft | 2 kts | 273° |
| 2026-05-06 14:41 | -3.03356 | -60.04705 | 272 ft | 20 kts | 262° |
| 2026-05-06 14:41 | -3.03459 | -60.04862 | 272 ft | 32 kts | 221° |
| 2026-05-06 14:41 | -3.03589 | -60.05047 | 272 ft | 33 kts | 250° |
| 2026-05-06 14:42 | -3.03651 | -60.05272 | 272 ft | 34 kts | 256° |
| 2026-05-06 14:42 | -3.03693 | -60.05505 | 272 ft | 35 kts | 270° |
| 2026-05-06 14:42 | -3.03691 | -60.05760 | 272 ft | 41 kts | 270° |
| 2026-05-06 14:42 | -3.03690 | -60.06067 | 272 ft | 46 kts | 270° |
| 2026-05-06 14:43 | -3.03836 | -60.06167 | 273 ft | 25 kts | 159° |
| 2026-05-06 14:43 | -3.03858 | -60.06112 | 274 ft | 10 kts | 90° |
| 2026-05-06 14:43 | -3.03858 | -60.05783 | 272 ft | 90 kts | 90° |
| 2026-05-06 14:43 | -3.03859 | -60.04888 | 275 ft | 163 kts | 90° |
| 2026-05-06 14:44 | -3.03867 | -60.03615 | 701 ft | 196 kts | 90° |
| 2026-05-06 14:44 | -3.03883 | -60.02211 | 1808 ft | 191 kts | 88° |
| 2026-05-06 14:44 | -3.03936 | -60.00874 | 2760 ft | 206 kts | 97° |
| 2026-05-06 14:45 | -3.05986 | -59.98463 | 4093 ft | 257 kts | 144° |
| 2026-05-06 14:45 | -3.07528 | -59.97473 | 4991 ft | 268 kts | 143° |
| 2026-05-06 14:45 | -3.09085 | -59.96461 | 6151 ft | 269 kts | 143° |
| 2026-05-06 14:45 | -3.10670 | -59.95429 | 7164 ft | 272 kts | 143° |
| 2026-05-06 14:46 | -3.12248 | -59.94400 | 8088 ft | 275 kts | 143° |
| 2026-05-06 14:46 | -3.13881 | -59.93336 | 8999 ft | 279 kts | 143° |
| 2026-05-06 14:46 | -3.15514 | -59.92272 | 9922 ft | 283 kts | 144° |
| 2026-05-06 14:46 | -3.17174 | -59.91189 | 10608 ft | 294 kts | 144° |
| 2026-05-06 14:47 | -3.18957 | -59.90021 | 11026 ft | 314 kts | 144° |
| 2026-05-06 14:47 | -3.20824 | -59.88797 | 11712 ft | 328 kts | 144° |
| 2026-05-06 14:47 | -3.22572 | -59.87305 | 12608 ft | 334 kts | 117° |
| 2026-05-06 14:47 | -3.22717 | -59.85123 | 13998 ft | 317 kts | 77° |
| 2026-05-06 14:48 | -3.22302 | -59.82929 | 14709 ft | 327 kts | 89° |
| 2026-05-06 14:48 | -3.22657 | -59.80660 | 15065 ft | 342 kts | 110° |
| 2026-05-06 14:48 | -3.23887 | -59.78568 | 15457 ft | 355 kts | 130° |
| 2026-05-06 14:48 | -3.25833 | -59.77042 | 16059 ft | 360 kts | 151° |
| 2026-05-06 14:49 | -3.28229 | -59.76268 | 16616 ft | 368 kts | 170° |
| 2026-05-06 14:49 | -3.30766 | -59.76078 | 17201 ft | 372 kts | 175° |
| 2026-05-06 14:49 | -3.33363 | -59.75940 | 17741 ft | 376 kts | 175° |
| 2026-05-06 14:49 | -3.35984 | -59.75748 | 18308 ft | 378 kts | 170° |
| 2026-05-06 14:50 | -3.38577 | -59.75294 | 18775 ft | 380 kts | 168° |
| 2026-05-06 14:50 | -3.41122 | -59.74582 | 19234 ft | 380 kts | 155° |
| 2026-05-06 14:50 | -3.43507 | -59.73454 | 19688 ft | 382 kts | 151° |
| 2026-05-06 14:50 | -3.45852 | -59.72188 | 20134 ft | 384 kts | 149° |
| 2026-05-06 14:51 | -3.48163 | -59.70827 | 20594 ft | 386 kts | 147° |
| 2026-05-06 14:51 | -3.50455 | -59.69408 | 21033 ft | 389 kts | 146° |
| 2026-05-06 14:51 | -3.52744 | -59.67949 | 21472 ft | 391 kts | 144° |
| 2026-05-06 14:51 | -3.54836 | -59.66206 | 21893 ft | 392 kts | 137° |
| 2026-05-06 14:52 | -3.56879 | -59.64377 | 22303 ft | 395 kts | 137° |
| 2026-05-06 14:52 | -3.58928 | -59.62535 | 22729 ft | 397 kts | 137° |
| 2026-05-06 14:52 | -3.60991 | -59.60676 | 23148 ft | 400 kts | 137° |
| 2026-05-06 14:52 | -3.63063 | -59.58806 | 23542 ft | 402 kts | 137° |
| 2026-05-06 14:53 | -3.65150 | -59.56923 | 23886 ft | 405 kts | 137° |
| 2026-05-06 14:53 | -3.66536 | -59.55671 | 24111 ft | 406 kts | 137° |
| 2026-05-06 14:53 | -3.68640 | -59.53771 | 24446 ft | 408 kts | 137° |
| 2026-05-06 14:53 | -3.70753 | -59.51862 | 24776 ft | 411 kts | 137° |
| 2026-05-06 14:54 | -3.72881 | -59.49940 | 25104 ft | 413 kts | 137° |
| 2026-05-06 14:54 | -3.75020 | -59.48008 | 25436 ft | 415 kts | 137° |
| 2026-05-06 14:54 | -3.77170 | -59.46066 | 25750 ft | 417 kts | 137° |
| 2026-05-06 14:54 | -3.79331 | -59.44115 | 26069 ft | 419 kts | 137° |
| 2026-05-06 14:55 | -3.81494 | -59.42161 | 26382 ft | 421 kts | 137° |
| 2026-05-06 14:55 | -3.83676 | -59.40189 | 26695 ft | 424 kts | 137° |
| 2026-05-06 14:55 | -3.86588 | -59.37558 | 27109 ft | 426 kts | 137° |
| 2026-05-06 14:55 | -3.88079 | -59.36211 | 27316 ft | 428 kts | 137° |
| 2026-05-06 14:56 | -3.90266 | -59.34235 | 27618 ft | 430 kts | 137° |
| 2026-05-06 14:56 | -3.92518 | -59.32199 | 27923 ft | 432 kts | 137° |
| 2026-05-06 14:56 | -3.94728 | -59.30201 | 28208 ft | 435 kts | 137° |
| 2026-05-06 14:56 | -3.96976 | -59.28170 | 28528 ft | 436 kts | 137° |
| 2026-05-06 14:57 | -3.99233 | -59.26130 | 28823 ft | 438 kts | 136° |
| 2026-05-06 14:57 | -4.01502 | -59.24079 | 29099 ft | 440 kts | 136° |
| 2026-05-06 14:57 | -4.03781 | -59.22018 | 29386 ft | 442 kts | 136° |
| 2026-05-06 14:57 | -4.06071 | -59.19948 | 29657 ft | 444 kts | 136° |
| 2026-05-06 14:58 | -4.08374 | -59.17866 | 29928 ft | 446 kts | 136° |
| 2026-05-06 14:58 | -4.10686 | -59.15775 | 30182 ft | 449 kts | 136° |
| 2026-05-06 14:58 | -4.13012 | -59.13672 | 30399 ft | 450 kts | 136° |
| 2026-05-06 14:58 | -4.15341 | -59.11565 | 30633 ft | 452 kts | 136° |
| 2026-05-06 14:59 | -4.17680 | -59.09450 | 30860 ft | 454 kts | 136° |
| 2026-05-06 14:59 | -4.19993 | -59.07357 | 31085 ft | 455 kts | 137° |
| 2026-05-06 14:59 | -4.22378 | -59.05200 | 31310 ft | 457 kts | 137° |
| 2026-05-06 14:59 | -4.24707 | -59.03092 | 31529 ft | 458 kts | 137° |
| 2026-05-06 15:00 | -4.27087 | -59.00939 | 31749 ft | 460 kts | 136° |
| 2026-05-06 15:00 | -4.29471 | -58.98782 | 31982 ft | 461 kts | 137° |
| 2026-05-06 15:00 | -4.31860 | -58.96620 | 32179 ft | 463 kts | 137° |
| 2026-05-06 15:00 | -4.34252 | -58.94455 | 32390 ft | 465 kts | 137° |
| 2026-05-06 15:01 | -4.36653 | -58.92282 | 32658 ft | 465 kts | 137° |
| 2026-05-06 15:01 | -4.39044 | -58.90118 | 32936 ft | 464 kts | 137° |
| 2026-05-06 15:01 | -4.41412 | -58.87974 | 33218 ft | 464 kts | 137° |
| 2026-05-06 15:01 | -4.43807 | -58.85805 | 33507 ft | 464 kts | 137° |
| 2026-05-06 15:02 | -4.46198 | -58.83641 | 33796 ft | 463 kts | 137° |
| 2026-05-06 15:02 | -4.48593 | -58.81472 | 34077 ft | 463 kts | 137° |
| 2026-05-06 15:02 | -4.50977 | -58.79313 | 34329 ft | 463 kts | 137° |
| 2026-05-06 15:02 | -4.53368 | -58.77148 | 34570 ft | 462 kts | 137° |
| 2026-05-06 15:03 | -4.55761 | -58.74975 | 34813 ft | 462 kts | 137° |
| 2026-05-06 15:03 | -4.58139 | -58.72810 | 35037 ft | 462 kts | 137° |
| 2026-05-06 15:03 | -4.60526 | -58.70638 | 35260 ft | 463 kts | 137° |
| 2026-05-06 15:03 | -4.62907 | -58.68471 | 35487 ft | 463 kts | 137° |
| 2026-05-06 15:04 | -4.65289 | -58.66303 | 35720 ft | 462 kts | 137° |
| 2026-05-06 15:04 | -4.67673 | -58.64132 | 35948 ft | 462 kts | 137° |
| 2026-05-06 15:04 | -4.70049 | -58.61969 | 36181 ft | 462 kts | 137° |
| 2026-05-06 15:04 | -4.72399 | -58.59829 | 36422 ft | 461 kts | 137° |
| 2026-05-06 15:05 | -4.74772 | -58.57668 | 36665 ft | 461 kts | 137° |
| 2026-05-06 15:05 | -4.77177 | -58.55478 | 36904 ft | 460 kts | 137° |
| 2026-05-06 15:05 | -4.79546 | -58.53320 | 37051 ft | 461 kts | 137° |
| 2026-05-06 15:06 | -4.84249 | -58.49036 | 37050 ft | 457 kts | 137° |
| 2026-05-06 15:06 | -4.88955 | -58.44748 | 37048 ft | 457 kts | 137° |
| 2026-05-06 15:07 | -4.93665 | -58.40455 | 37055 ft | 458 kts | 137° |
| 2026-05-06 15:07 | -4.98379 | -58.36158 | 37051 ft | 458 kts | 137° |
| 2026-05-06 15:08 | -5.03088 | -58.31865 | 37058 ft | 457 kts | 137° |
| 2026-05-06 15:08 | -5.07756 | -58.27609 | 37063 ft | 457 kts | 137° |
| 2026-05-06 15:09 | -5.12467 | -58.23312 | 37053 ft | 457 kts | 137° |
| 2026-05-06 15:09 | -5.17177 | -58.19015 | 37063 ft | 459 kts | 137° |
| 2026-05-06 15:10 | -5.21908 | -58.14705 | 37057 ft | 461 kts | 137° |
| 2026-05-06 15:10 | -5.26690 | -58.10405 | 37055 ft | 461 kts | 137° |
| 2026-05-06 15:11 | -5.31454 | -58.06115 | 37055 ft | 461 kts | 137° |
| 2026-05-06 15:11 | -5.36228 | -58.01815 | 37052 ft | 461 kts | 137° |
| 2026-05-06 15:12 | -5.40996 | -57.97518 | 37050 ft | 461 kts | 137° |
| 2026-05-06 15:12 | -5.45771 | -57.93216 | 37054 ft | 461 kts | 137° |
| 2026-05-06 15:13 | -5.50535 | -57.88922 | 37053 ft | 460 kts | 137° |
| 2026-05-06 15:13 | -5.55277 | -57.84647 | 37057 ft | 462 kts | 137° |
| 2026-05-06 15:14 | -5.60057 | -57.80337 | 37052 ft | 462 kts | 137° |
| 2026-05-06 15:14 | -5.64834 | -57.76029 | 37051 ft | 462 kts | 137° |
| 2026-05-06 15:15 | -5.69602 | -57.71726 | 37048 ft | 462 kts | 137° |
| 2026-05-06 15:15 | -5.74385 | -57.67411 | 37048 ft | 462 kts | 137° |
| 2026-05-06 15:16 | -5.79157 | -57.63103 | 37052 ft | 461 kts | 137° |
| 2026-05-06 15:16 | -5.83934 | -57.58792 | 37047 ft | 462 kts | 137° |
| 2026-05-06 15:17 | -5.88708 | -57.54480 | 37044 ft | 462 kts | 137° |
| 2026-05-06 15:17 | -5.93494 | -57.50158 | 37038 ft | 462 kts | 137° |
| 2026-05-06 15:18 | -5.98269 | -57.45844 | 37045 ft | 462 kts | 137° |
| 2026-05-06 15:18 | -6.03019 | -57.41552 | 37041 ft | 462 kts | 137° |
| 2026-05-06 15:19 | -6.07790 | -57.37240 | 37042 ft | 462 kts | 137° |
| 2026-05-06 15:19 | -6.12575 | -57.32913 | 37044 ft | 464 kts | 137° |
| 2026-05-06 15:20 | -6.17377 | -57.28570 | 37040 ft | 464 kts | 137° |
| 2026-05-06 15:20 | -6.22179 | -57.24228 | 37044 ft | 464 kts | 137° |
| 2026-05-06 15:21 | -6.26970 | -57.19893 | 37043 ft | 464 kts | 137° |
| 2026-05-06 15:21 | -6.31767 | -57.15551 | 37041 ft | 463 kts | 137° |
| 2026-05-06 15:22 | -6.36529 | -57.11240 | 37040 ft | 464 kts | 137° |
| 2026-05-06 15:22 | -6.41327 | -57.06896 | 37030 ft | 464 kts | 137° |
| 2026-05-06 15:23 | -6.46129 | -57.02546 | 37044 ft | 467 kts | 138° |
| 2026-05-06 15:23 | -6.50946 | -56.98183 | 37041 ft | 465 kts | 137° |
| 2026-05-06 15:24 | -6.55760 | -56.93820 | 37047 ft | 466 kts | 137° |
| 2026-05-06 15:24 | -6.60560 | -56.89469 | 37043 ft | 465 kts | 138° |
| 2026-05-06 15:25 | -6.65365 | -56.85112 | 37042 ft | 466 kts | 137° |
| 2026-05-06 15:25 | -6.70169 | -56.80755 | 37042 ft | 463 kts | 137° |
| 2026-05-06 15:26 | -6.74952 | -56.76416 | 37038 ft | 463 kts | 137° |
| 2026-05-06 15:26 | -6.79735 | -56.72075 | 37039 ft | 463 kts | 137° |
| 2026-05-06 15:27 | -6.84522 | -56.67731 | 37040 ft | 463 kts | 137° |
| 2026-05-06 15:27 | -6.89278 | -56.63412 | 37037 ft | 463 kts | 137° |
| 2026-05-06 15:28 | -6.94060 | -56.59069 | 37036 ft | 463 kts | 137° |
| 2026-05-06 15:28 | -6.98833 | -56.54733 | 37042 ft | 462 kts | 138° |
| 2026-05-06 15:29 | -7.03578 | -56.50420 | 37032 ft | 458 kts | 138° |
| 2026-05-06 15:29 | -7.08319 | -56.46110 | 37035 ft | 459 kts | 138° |
| 2026-05-06 15:30 | -7.13060 | -56.41801 | 37033 ft | 460 kts | 138° |
| 2026-05-06 15:30 | -7.17803 | -56.37488 | 37034 ft | 459 kts | 138° |
| 2026-05-06 15:31 | -7.22542 | -56.33176 | 37040 ft | 459 kts | 138° |
| 2026-05-06 15:31 | -7.27279 | -56.28866 | 37036 ft | 458 kts | 138° |
| 2026-05-06 15:32 | -7.34358 | -56.22417 | 37034 ft | 458 kts | 138° |
| 2026-05-06 15:32 | -7.39086 | -56.18109 | 37029 ft | 458 kts | 138° |
| 2026-05-06 15:33 | -7.43783 | -56.13830 | 37031 ft | 458 kts | 138° |
| 2026-05-06 15:33 | -7.48505 | -56.09525 | 37031 ft | 458 kts | 138° |
| 2026-05-06 15:34 | -7.53211 | -56.05233 | 37025 ft | 456 kts | 138° |
| 2026-05-06 15:34 | -7.57933 | -56.00926 | 37027 ft | 458 kts | 138° |
| 2026-05-06 15:35 | -7.62658 | -55.96615 | 37022 ft | 458 kts | 138° |
| 2026-05-06 15:35 | -7.67387 | -55.92299 | 37025 ft | 459 kts | 138° |
| 2026-05-06 15:36 | -7.72106 | -55.87990 | 37023 ft | 458 kts | 138° |
| 2026-05-06 15:36 | -7.76831 | -55.83674 | 37025 ft | 458 kts | 138° |
| 2026-05-06 15:37 | -7.81545 | -55.79367 | 37024 ft | 458 kts | 138° |
| 2026-05-06 15:37 | -7.86265 | -55.75055 | 37025 ft | 456 kts | 139° |
| 2026-05-06 15:38 | -7.90929 | -55.70791 | 37025 ft | 457 kts | 138° |
| 2026-05-06 15:38 | -7.95636 | -55.66487 | 37023 ft | 456 kts | 138° |
| 2026-05-06 15:39 | -8.00334 | -55.62189 | 37027 ft | 456 kts | 139° |
| 2026-05-06 15:39 | -8.05030 | -55.57893 | 37028 ft | 455 kts | 139° |
| 2026-05-06 15:40 | -8.09716 | -55.53603 | 37030 ft | 456 kts | 139° |
| 2026-05-06 15:40 | -8.14417 | -55.49299 | 37033 ft | 456 kts | 138° |
| 2026-05-06 15:41 | -8.19117 | -55.44994 | 37029 ft | 456 kts | 139° |
| 2026-05-06 15:41 | -8.23811 | -55.40692 | 37027 ft | 456 kts | 138° |
| 2026-05-06 15:42 | -8.28500 | -55.36394 | 37028 ft | 455 kts | 139° |
| 2026-05-06 15:42 | -8.33191 | -55.32094 | 37025 ft | 456 kts | 139° |
| 2026-05-06 15:43 | -8.37855 | -55.27816 | 37028 ft | 456 kts | 138° |
| 2026-05-06 15:43 | -8.42553 | -55.23506 | 37032 ft | 456 kts | 139° |
| 2026-05-06 15:44 | -8.47226 | -55.19216 | 37022 ft | 454 kts | 139° |
| 2026-05-06 15:44 | -8.51905 | -55.14921 | 37027 ft | 454 kts | 139° |
| 2026-05-06 15:45 | -8.55820 | -55.11325 | 37025 ft | 454 kts | 139° |
| 2026-05-06 15:45 | -8.60468 | -55.07055 | 37026 ft | 454 kts | 139° |
| 2026-05-06 15:46 | -8.65145 | -55.02757 | 37027 ft | 455 kts | 139° |
| 2026-05-06 15:46 | -8.69828 | -54.98451 | 37026 ft | 455 kts | 139° |
| 2026-05-06 15:47 | -8.74497 | -54.94157 | 37024 ft | 453 kts | 139° |
| 2026-05-06 15:47 | -8.79155 | -54.89872 | 37032 ft | 453 kts | 139° |
| 2026-05-06 15:48 | -8.83804 | -54.85594 | 37034 ft | 453 kts | 139° |
| 2026-05-06 15:48 | -8.88467 | -54.81301 | 37025 ft | 453 kts | 139° |
| 2026-05-06 15:49 | -8.93110 | -54.77025 | 37040 ft | 453 kts | 139° |
| 2026-05-06 15:49 | -8.97773 | -54.72729 | 37030 ft | 453 kts | 139° |
| 2026-05-06 15:50 | -9.02417 | -54.68448 | 37028 ft | 452 kts | 139° |
| 2026-05-06 15:50 | -9.07076 | -54.64154 | 37030 ft | 453 kts | 139° |
| 2026-05-06 15:51 | -9.11727 | -54.59865 | 37027 ft | 453 kts | 139° |
| 2026-05-06 15:51 | -9.16384 | -54.55559 | 37026 ft | 453 kts | 137° |
| 2026-05-06 15:52 | -9.20847 | -54.51068 | 37028 ft | 453 kts | 136° |
| 2026-05-06 15:52 | -9.25331 | -54.46582 | 37025 ft | 453 kts | 136° |
| 2026-05-06 15:53 | -9.29812 | -54.42101 | 37021 ft | 452 kts | 136° |
| 2026-05-06 15:53 | -9.34287 | -54.37625 | 37020 ft | 452 kts | 136° |
| 2026-05-06 15:54 | -9.38759 | -54.33150 | 37019 ft | 452 kts | 136° |
| 2026-05-06 15:54 | -9.43199 | -54.28706 | 37017 ft | 451 kts | 136° |
| 2026-05-06 15:55 | -9.47669 | -54.24230 | 37016 ft | 452 kts | 137° |
| 2026-05-06 15:55 | -9.52139 | -54.19752 | 37014 ft | 451 kts | 136° |
| 2026-05-06 15:56 | -9.56594 | -54.15288 | 37014 ft | 452 kts | 136° |
| 2026-05-06 15:56 | -9.61059 | -54.10810 | 37008 ft | 452 kts | 136° |
| 2026-05-06 15:57 | -9.65524 | -54.06333 | 37009 ft | 452 kts | 136° |
| 2026-05-06 15:57 | -9.69990 | -54.01852 | 37010 ft | 452 kts | 136° |
| 2026-05-06 15:58 | -9.74445 | -53.97380 | 37013 ft | 451 kts | 137° |
| 2026-05-06 15:58 | -9.78902 | -53.92904 | 37007 ft | 451 kts | 137° |
| 2026-05-06 15:59 | -9.83360 | -53.88427 | 37005 ft | 451 kts | 137° |
| 2026-05-06 15:59 | -9.87836 | -53.84033 | 37006 ft | 450 kts | 139° |
| 2026-05-06 16:00 | -9.92468 | -53.79706 | 37005 ft | 450 kts | 139° |
| 2026-05-06 16:00 | -9.97041 | -53.75412 | 37001 ft | 451 kts | 139° |
| 2026-05-06 16:01 | -10.01638 | -53.71092 | 37006 ft | 450 kts | 139° |
| 2026-05-06 16:01 | -10.06232 | -53.66772 | 37004 ft | 450 kts | 139° |
| 2026-05-06 16:02 | -10.10821 | -53.62455 | 37004 ft | 450 kts | 139° |
| 2026-05-06 16:02 | -10.15422 | -53.58127 | 37006 ft | 451 kts | 139° |
| 2026-05-06 16:03 | -10.20025 | -53.53794 | 36998 ft | 450 kts | 139° |
| 2026-05-06 16:03 | -10.24616 | -53.49470 | 37003 ft | 450 kts | 139° |
| 2026-05-06 16:04 | -10.29201 | -53.45150 | 37003 ft | 451 kts | 139° |
| 2026-05-06 16:04 | -10.33798 | -53.40817 | 37000 ft | 451 kts | 139° |
| 2026-05-06 16:05 | -10.38368 | -53.36501 | 36999 ft | 451 kts | 138° |
| 2026-05-06 16:05 | -10.42957 | -53.32164 | 37003 ft | 451 kts | 139° |
| 2026-05-06 16:06 | -10.47537 | -53.27832 | 36999 ft | 450 kts | 139° |
| 2026-05-06 16:06 | -10.52122 | -53.23495 | 37004 ft | 450 kts | 138° |
| 2026-05-06 16:07 | -10.56707 | -53.19157 | 37005 ft | 450 kts | 138° |
| 2026-05-06 16:07 | -10.61291 | -53.14816 | 37003 ft | 451 kts | 138° |
| 2026-05-06 16:08 | -10.65871 | -53.10478 | 37008 ft | 451 kts | 138° |
| 2026-05-06 16:08 | -10.70462 | -53.06127 | 37006 ft | 451 kts | 139° |
| 2026-05-06 16:09 | -10.75048 | -53.01779 | 37006 ft | 451 kts | 138° |
| 2026-05-06 16:09 | -10.79634 | -52.97431 | 37011 ft | 451 kts | 138° |
| 2026-05-06 16:10 | -10.84208 | -52.93090 | 37004 ft | 450 kts | 139° |
| 2026-05-06 16:10 | -10.88793 | -52.88738 | 37007 ft | 451 kts | 139° |
| 2026-05-06 16:11 | -10.93385 | -52.84377 | 37012 ft | 451 kts | 139° |
| 2026-05-06 16:11 | -10.97947 | -52.80042 | 37010 ft | 451 kts | 139° |
| 2026-05-06 16:12 | -11.02530 | -52.75686 | 37009 ft | 451 kts | 139° |
| 2026-05-06 16:12 | -11.07126 | -52.71317 | 37009 ft | 452 kts | 139° |
| 2026-05-06 16:13 | -11.11717 | -52.66949 | 37014 ft | 452 kts | 139° |
| 2026-05-06 16:13 | -11.16315 | -52.62572 | 37009 ft | 452 kts | 139° |
| 2026-05-06 16:14 | -11.20913 | -52.58194 | 37013 ft | 453 kts | 139° |
| 2026-05-06 16:14 | -11.25513 | -52.53811 | 37010 ft | 452 kts | 139° |
| 2026-05-06 16:15 | -11.30110 | -52.49430 | 37016 ft | 452 kts | 139° |
| 2026-05-06 16:15 | -11.34674 | -52.45079 | 37019 ft | 452 kts | 139° |
| 2026-05-06 16:16 | -11.39271 | -52.40693 | 37019 ft | 454 kts | 139° |
| 2026-05-06 16:16 | -11.43883 | -52.36292 | 37019 ft | 454 kts | 139° |
| 2026-05-06 16:17 | -11.48495 | -52.31887 | 37022 ft | 454 kts | 139° |
| 2026-05-06 16:17 | -11.53132 | -52.27525 | 37020 ft | 453 kts | 142° |
| 2026-05-06 16:18 | -11.57943 | -52.23378 | 37020 ft | 453 kts | 141° |
| 2026-05-06 16:18 | -11.62743 | -52.19197 | 37022 ft | 454 kts | 141° |
| 2026-05-06 16:19 | -11.67557 | -52.15001 | 37031 ft | 456 kts | 141° |
| 2026-05-06 16:19 | -11.72373 | -52.10799 | 37026 ft | 455 kts | 142° |
| 2026-05-06 16:20 | -11.77175 | -52.06608 | 37020 ft | 455 kts | 141° |
| 2026-05-06 16:20 | -11.81991 | -52.02403 | 37026 ft | 455 kts | 142° |
| 2026-05-06 16:21 | -11.86768 | -51.98231 | 37009 ft | 455 kts | 141° |
| 2026-05-06 16:21 | -11.91578 | -51.94026 | 37022 ft | 455 kts | 142° |
| 2026-05-06 16:22 | -11.96378 | -51.89829 | 37021 ft | 455 kts | 142° |
| 2026-05-06 16:22 | -12.01189 | -51.85621 | 37023 ft | 455 kts | 142° |
| 2026-05-06 16:23 | -12.05988 | -51.81420 | 37022 ft | 455 kts | 142° |
| 2026-05-06 16:23 | -12.10801 | -51.77206 | 37023 ft | 455 kts | 141° |
| 2026-05-06 16:24 | -12.15601 | -51.73001 | 37022 ft | 455 kts | 141° |
| 2026-05-06 16:24 | -12.20414 | -51.68782 | 37026 ft | 455 kts | 141° |
| 2026-05-06 16:25 | -12.25191 | -51.64592 | 37023 ft | 455 kts | 141° |
| 2026-05-06 16:25 | -12.29996 | -51.60376 | 37020 ft | 455 kts | 141° |
| 2026-05-06 16:26 | -12.34796 | -51.56163 | 37024 ft | 455 kts | 141° |
| 2026-05-06 16:26 | -12.39600 | -51.51943 | 37018 ft | 455 kts | 141° |
| 2026-05-06 16:27 | -12.44409 | -51.47718 | 37017 ft | 456 kts | 141° |
| 2026-05-06 16:27 | -12.49218 | -51.43491 | 37016 ft | 456 kts | 141° |
| 2026-05-06 16:28 | -12.53943 | -51.39165 | 37020 ft | 456 kts | 139° |
| 2026-05-06 16:28 | -12.58578 | -51.34729 | 37010 ft | 456 kts | 139° |
| 2026-05-06 16:29 | -12.63197 | -51.30326 | 37010 ft | 456 kts | 139° |
| 2026-05-06 16:29 | -12.67875 | -51.25865 | 37006 ft | 457 kts | 139° |
| 2026-05-06 16:30 | -12.70944 | -51.22939 | 37006 ft | 457 kts | 139° |
| 2026-05-06 16:30 | -12.77137 | -51.17029 | 37006 ft | 457 kts | 139° |
| 2026-05-06 16:31 | -12.81782 | -51.12593 | 37008 ft | 457 kts | 139° |
| 2026-05-06 16:31 | -12.86432 | -51.08151 | 37012 ft | 457 kts | 140° |
| 2026-05-06 16:32 | -12.91073 | -51.03715 | 37006 ft | 457 kts | 140° |
| 2026-05-06 16:32 | -12.94936 | -51.00020 | 37010 ft | 457 kts | 140° |
| 2026-05-06 16:33 | -12.99579 | -50.95577 | 37007 ft | 457 kts | 140° |
| 2026-05-06 16:34 | -13.06543 | -50.88910 | 37007 ft | 457 kts | 140° |
| 2026-05-06 16:34 | -13.11197 | -50.84451 | 37007 ft | 456 kts | 140° |
| 2026-05-06 16:35 | -13.15800 | -50.80038 | 37011 ft | 456 kts | 140° |
| 2026-05-06 16:35 | -13.21215 | -50.74844 | 37010 ft | 456 kts | 140° |
| 2026-05-06 16:36 | -13.25057 | -50.71157 | 37008 ft | 456 kts | 140° |
| 2026-05-06 16:36 | -13.29689 | -50.66710 | 37010 ft | 456 kts | 140° |
| 2026-05-06 16:37 | -13.34563 | -50.62588 | 37035 ft | 454 kts | 145° |
| 2026-05-06 16:37 | -13.39536 | -50.58569 | 37011 ft | 454 kts | 144° |
| 2026-05-06 16:38 | -13.44473 | -50.54540 | 37019 ft | 454 kts | 144° |
| 2026-05-06 16:38 | -13.49421 | -50.50498 | 37013 ft | 454 kts | 144° |
| 2026-05-06 16:39 | -13.54375 | -50.46447 | 37015 ft | 454 kts | 144° |
| 2026-05-06 16:39 | -13.59322 | -50.42400 | 37018 ft | 454 kts | 145° |
| 2026-05-06 16:40 | -13.64221 | -50.38390 | 37011 ft | 453 kts | 145° |
| 2026-05-06 16:40 | -13.69185 | -50.34325 | 37010 ft | 453 kts | 145° |
| 2026-05-06 16:41 | -13.74089 | -50.30306 | 37022 ft | 453 kts | 145° |
| 2026-05-06 16:41 | -13.79025 | -50.26260 | 37016 ft | 453 kts | 145° |
| 2026-05-06 16:42 | -13.83946 | -50.22223 | 37018 ft | 453 kts | 145° |
| 2026-05-06 16:42 | -13.88872 | -50.18180 | 37018 ft | 453 kts | 145° |
| 2026-05-06 16:43 | -13.93797 | -50.14135 | 37026 ft | 453 kts | 145° |
| 2026-05-06 16:43 | -13.98721 | -50.10089 | 37016 ft | 452 kts | 145° |
| 2026-05-06 16:44 | -14.03597 | -50.06080 | 37023 ft | 452 kts | 145° |
| 2026-05-06 16:44 | -14.08514 | -50.02036 | 37028 ft | 452 kts | 145° |
| 2026-05-06 16:45 | -14.13432 | -49.97988 | 37029 ft | 452 kts | 145° |
| 2026-05-06 16:45 | -14.18346 | -49.93941 | 37020 ft | 451 kts | 146° |
| 2026-05-06 16:46 | -14.23243 | -49.89906 | 37025 ft | 451 kts | 146° |
| 2026-05-06 16:46 | -14.28159 | -49.85852 | 37024 ft | 451 kts | 146° |
| 2026-05-06 16:47 | -14.33033 | -49.81832 | 37031 ft | 452 kts | 146° |
| 2026-05-06 16:47 | -14.37950 | -49.77773 | 37027 ft | 453 kts | 146° |
| 2026-05-06 16:48 | -14.42855 | -49.73722 | 37028 ft | 452 kts | 146° |
| 2026-05-06 16:48 | -14.47762 | -49.69667 | 37027 ft | 451 kts | 146° |
| 2026-05-06 16:49 | -14.52662 | -49.65614 | 37037 ft | 451 kts | 146° |
| 2026-05-06 16:49 | -14.57569 | -49.61555 | 37042 ft | 451 kts | 146° |
| 2026-05-06 16:50 | -14.62460 | -49.57506 | 37036 ft | 451 kts | 146° |
| 2026-05-06 16:50 | -14.64910 | -49.55477 | 36765 ft | 448 kts | 146° |
| 2026-05-06 16:50 | -14.67289 | -49.53436 | 35766 ft | 458 kts | 140° |
| 2026-05-06 16:50 | -14.69273 | -49.50804 | 35015 ft | 469 kts | 123° |
| 2026-05-06 16:51 | -14.70625 | -49.47744 | 34593 ft | 468 kts | 117° |
| 2026-05-06 16:51 | -14.71850 | -49.44617 | 33785 ft | 470 kts | 117° |
| 2026-05-06 16:51 | -14.73044 | -49.41456 | 32928 ft | 473 kts | 116° |
| 2026-05-06 16:51 | -14.74213 | -49.38293 | 32290 ft | 470 kts | 116° |
| 2026-05-06 16:52 | -14.75355 | -49.35169 | 31867 ft | 462 kts | 116° |
| 2026-05-06 16:52 | -14.76476 | -49.32083 | 31422 ft | 456 kts | 116° |
| 2026-05-06 16:52 | -14.77584 | -49.29031 | 30912 ft | 452 kts | 116° |
| 2026-05-06 16:52 | -14.78686 | -49.25992 | 30324 ft | 450 kts | 116° |
| 2026-05-06 16:53 | -14.79781 | -49.22971 | 29692 ft | 448 kts | 116° |
| 2026-05-06 16:53 | -14.80878 | -49.19969 | 29104 ft | 444 kts | 116° |
| 2026-05-06 16:53 | -14.81998 | -49.17006 | 28545 ft | 441 kts | 116° |
| 2026-05-06 16:53 | -14.83103 | -49.14074 | 28079 ft | 435 kts | 116° |
| 2026-05-06 16:54 | -14.84191 | -49.11179 | 27562 ft | 431 kts | 116° |
| 2026-05-06 16:54 | -14.85271 | -49.08302 | 27070 ft | 427 kts | 115° |
| 2026-05-06 16:54 | -14.86342 | -49.05452 | 26556 ft | 424 kts | 115° |
| 2026-05-06 16:54 | -14.87404 | -49.02621 | 26048 ft | 421 kts | 115° |
| 2026-05-06 16:55 | -14.88460 | -48.99807 | 25550 ft | 418 kts | 115° |
| 2026-05-06 16:55 | -14.89508 | -48.97013 | 25076 ft | 416 kts | 114° |
| 2026-05-06 16:55 | -14.90538 | -48.94264 | 24593 ft | 413 kts | 114° |
| 2026-05-06 16:55 | -14.91574 | -48.91499 | 24117 ft | 411 kts | 114° |
| 2026-05-06 16:56 | -14.92601 | -48.88756 | 23648 ft | 409 kts | 114° |
| 2026-05-06 16:56 | -14.93624 | -48.86022 | 23103 ft | 407 kts | 114° |
| 2026-05-06 16:56 | -14.94641 | -48.83306 | 22623 ft | 403 kts | 113° |
| 2026-05-06 16:56 | -14.95649 | -48.80612 | 22175 ft | 399 kts | 113° |
| 2026-05-06 16:57 | -14.96645 | -48.77947 | 21740 ft | 395 kts | 113° |
| 2026-05-06 16:57 | -14.97631 | -48.75309 | 21305 ft | 391 kts | 113° |
| 2026-05-06 16:57 | -14.98607 | -48.72697 | 20881 ft | 388 kts | 113° |
| 2026-05-06 16:57 | -14.99577 | -48.70099 | 20459 ft | 385 kts | 112° |
| 2026-05-06 16:58 | -15.00538 | -48.67527 | 20040 ft | 382 kts | 112° |
| 2026-05-06 16:58 | -15.01489 | -48.64978 | 19644 ft | 379 kts | 112° |
| 2026-05-06 16:58 | -15.02438 | -48.62445 | 19248 ft | 376 kts | 114° |
| 2026-05-06 16:58 | -15.03761 | -48.60136 | 18862 ft | 371 kts | 133° |
| 2026-05-06 16:59 | -15.05738 | -48.58533 | 18858 ft | 356 kts | 152° |
| 2026-05-06 16:59 | -15.08042 | -48.57761 | 18809 ft | 344 kts | 171° |
| 2026-05-06 16:59 | -15.10403 | -48.57825 | 18748 ft | 338 kts | 190° |
| 2026-05-06 16:59 | -15.12631 | -48.58665 | 18651 ft | 355 kts | 207° |
| 2026-05-06 17:00 | -15.14599 | -48.60254 | 18575 ft | 366 kts | 225° |
| 2026-05-06 17:00 | -15.16024 | -48.62467 | 18503 ft | 375 kts | 244° |
| 2026-05-06 17:00 | -15.16729 | -48.65078 | 18217 ft | 381 kts | 262° |
| 2026-05-06 17:00 | -15.16553 | -48.67806 | 17794 ft | 382 kts | 284° |
| 2026-05-06 17:01 | -15.15483 | -48.70329 | 17074 ft | 390 kts | 301° |
| 2026-05-06 17:01 | -15.14179 | -48.72824 | 16280 ft | 399 kts | 295° |
| 2026-05-06 17:01 | -15.13077 | -48.75495 | 15477 ft | 407 kts | 290° |
| 2026-05-06 17:01 | -15.12062 | -48.78250 | 14691 ft | 413 kts | 292° |
| 2026-05-06 17:02 | -15.10978 | -48.81027 | 13925 ft | 419 kts | 293° |
| 2026-05-06 17:02 | -15.09719 | -48.83713 | 13098 ft | 421 kts | 306° |
| 2026-05-06 17:02 | -15.07711 | -48.85857 | 12650 ft | 410 kts | 327° |
| 2026-05-06 17:02 | -15.05171 | -48.87055 | 12284 ft | 396 kts | 350° |
| 2026-05-06 17:03 | -15.02484 | -48.87122 | 12079 ft | 379 kts | 13° |
| 2026-05-06 17:03 | -15.00113 | -48.86171 | 12093 ft | 358 kts | 34° |
| 2026-05-06 17:03 | -14.98330 | -48.84497 | 12097 ft | 339 kts | 54° |
| 2026-05-06 17:03 | -14.97265 | -48.82396 | 12085 ft | 325 kts | 72° |
| 2026-05-06 17:04 | -14.96902 | -48.80115 | 12077 ft | 321 kts | 89° |
| 2026-05-06 17:04 | -14.97169 | -48.77819 | 12057 ft | 324 kts | 103° |
| 2026-05-06 17:04 | -14.97794 | -48.75578 | 12057 ft | 325 kts | 105° |
| 2026-05-06 17:04 | -14.98505 | -48.73355 | 12058 ft | 326 kts | 108° |
| 2026-05-06 17:05 | -14.99261 | -48.71161 | 12057 ft | 318 kts | 109° |
| 2026-05-06 17:05 | -15.00010 | -48.69059 | 12054 ft | 305 kts | 108° |
| 2026-05-06 17:05 | -15.00738 | -48.67052 | 12050 ft | 291 kts | 109° |
| 2026-05-06 17:05 | -15.01447 | -48.65121 | 12059 ft | 284 kts | 109° |
| 2026-05-06 17:06 | -15.02152 | -48.63214 | 12063 ft | 283 kts | 109° |
| 2026-05-06 17:06 | -15.02981 | -48.61353 | 12053 ft | 291 kts | 123° |
| 2026-05-06 17:06 | -15.04483 | -48.59873 | 12041 ft | 311 kts | 148° |
| 2026-05-06 17:06 | -15.06563 | -48.59097 | 12030 ft | 327 kts | 171° |
| 2026-05-06 17:07 | -15.08830 | -48.59225 | 12059 ft | 337 kts | 193° |
| 2026-05-06 17:07 | -15.10996 | -48.60272 | 12044 ft | 344 kts | 215° |
| 2026-05-06 17:07 | -15.12635 | -48.62045 | 12035 ft | 349 kts | 237° |
| 2026-05-06 17:07 | -15.13584 | -48.64340 | 12046 ft | 349 kts | 258° |
| 2026-05-06 17:08 | -15.13664 | -48.66828 | 12052 ft | 346 kts | 281° |
| 2026-05-06 17:08 | -15.12830 | -48.69138 | 12061 ft | 344 kts | 302° |
| 2026-05-06 17:08 | -15.11597 | -48.71280 | 12043 ft | 347 kts | 301° |
| 2026-05-06 17:08 | -15.10529 | -48.73524 | 12055 ft | 348 kts | 296° |
| 2026-05-06 17:09 | -15.09510 | -48.75797 | 12056 ft | 349 kts | 295° |
| 2026-05-06 17:09 | -15.08623 | -48.78127 | 12048 ft | 348 kts | 288° |
| 2026-05-06 17:09 | -15.07999 | -48.80544 | 12048 ft | 349 kts | 287° |
| 2026-05-06 17:09 | -15.06989 | -48.82801 | 12029 ft | 345 kts | 310° |
| 2026-05-06 17:10 | -15.05213 | -48.84398 | 12053 ft | 338 kts | 335° |
| 2026-05-06 17:10 | -15.02990 | -48.85042 | 12047 ft | 331 kts | 1° |
| 2026-05-06 17:10 | -15.00746 | -48.84673 | 12055 ft | 327 kts | 24° |
| 2026-05-06 17:10 | -14.98856 | -48.83417 | 12057 ft | 323 kts | 47° |
| 2026-05-06 17:11 | -14.97591 | -48.81525 | 12061 ft | 321 kts | 68° |
| 2026-05-06 17:11 | -14.97078 | -48.79288 | 12041 ft | 323 kts | 87° |
| 2026-05-06 17:11 | -14.97323 | -48.77016 | 12051 ft | 324 kts | 104° |
| 2026-05-06 17:11 | -14.98005 | -48.74799 | 12048 ft | 324 kts | 107° |
| 2026-05-06 17:12 | -14.98747 | -48.72591 | 12047 ft | 325 kts | 108° |
| 2026-05-06 17:12 | -14.99509 | -48.70426 | 12055 ft | 313 kts | 109° |
| 2026-05-06 17:12 | -15.00254 | -48.68365 | 12046 ft | 299 kts | 108° |
| 2026-05-06 17:12 | -15.00974 | -48.66398 | 12046 ft | 286 kts | 109° |
| 2026-05-06 17:13 | -15.01677 | -48.64490 | 12051 ft | 283 kts | 109° |
| 2026-05-06 17:13 | -15.02384 | -48.62588 | 12048 ft | 284 kts | 110° |
| 2026-05-06 17:13 | -15.03394 | -48.60798 | 12047 ft | 299 kts | 130° |
| 2026-05-06 17:13 | -15.05119 | -48.59495 | 12045 ft | 319 kts | 154° |
| 2026-05-06 17:14 | -15.07326 | -48.58998 | 12057 ft | 332 kts | 178° |
| 2026-05-06 17:14 | -15.09616 | -48.59426 | 12041 ft | 341 kts | 200° |
| 2026-05-06 17:14 | -15.11640 | -48.60707 | 12054 ft | 345 kts | 221° |
| 2026-05-06 17:14 | -15.13121 | -48.62662 | 12042 ft | 348 kts | 242° |
| 2026-05-06 17:15 | -15.13836 | -48.65047 | 12045 ft | 350 kts | 265° |
| 2026-05-06 17:15 | -15.13539 | -48.67523 | 12050 ft | 346 kts | 292° |
| 2026-05-06 17:15 | -15.12404 | -48.69670 | 12059 ft | 346 kts | 301° |
| 2026-05-06 17:15 | -15.11291 | -48.71876 | 12041 ft | 346 kts | 298° |
| 2026-05-06 17:16 | -15.10213 | -48.74115 | 12042 ft | 348 kts | 297° |
| 2026-05-06 17:16 | -15.09252 | -48.76425 | 12054 ft | 348 kts | 291° |
| 2026-05-06 17:16 | -15.08460 | -48.78783 | 12043 ft | 348 kts | 290° |
| 2026-05-06 17:16 | -15.07615 | -48.81123 | 12036 ft | 345 kts | 301° |
| 2026-05-06 17:17 | -15.06068 | -48.82966 | 12033 ft | 339 kts | 327° |
| 2026-05-06 17:17 | -15.03944 | -48.83934 | 12044 ft | 334 kts | 352° |
| 2026-05-06 17:17 | -15.01659 | -48.83902 | 12051 ft | 328 kts | 16° |
| 2026-05-06 17:17 | -14.99618 | -48.82936 | 12054 ft | 323 kts | 38° |
| 2026-05-06 17:18 | -14.98139 | -48.81217 | 12002 ft | 322 kts | 62° |
| 2026-05-06 17:18 | -14.97434 | -48.79040 | 12039 ft | 321 kts | 83° |
| 2026-05-06 17:18 | -14.97544 | -48.76743 | 12051 ft | 323 kts | 102° |
| 2026-05-06 17:18 | -14.98179 | -48.74510 | 12047 ft | 325 kts | 107° |
| 2026-05-06 17:19 | -14.98897 | -48.72285 | 12034 ft | 325 kts | 108° |
| 2026-05-06 17:19 | -14.99642 | -48.70126 | 12048 ft | 312 kts | 108° |
| 2026-05-06 17:19 | -15.00378 | -48.68067 | 12033 ft | 298 kts | 109° |
| 2026-05-06 17:19 | -15.01090 | -48.66105 | 12042 ft | 286 kts | 109° |
| 2026-05-06 17:20 | -15.01785 | -48.64213 | 12050 ft | 284 kts | 109° |
| 2026-05-06 17:20 | -15.02494 | -48.62310 | 12041 ft | 284 kts | 111° |
| 2026-05-06 17:20 | -15.03616 | -48.60575 | 12038 ft | 302 kts | 135° |
| 2026-05-06 17:20 | -15.05452 | -48.59414 | 12021 ft | 322 kts | 159° |
| 2026-05-06 17:21 | -15.07705 | -48.59113 | 12055 ft | 334 kts | 182° |
| 2026-05-06 17:21 | -15.09967 | -48.59751 | 12047 ft | 343 kts | 205° |
| 2026-05-06 17:21 | -15.11885 | -48.61219 | 12046 ft | 347 kts | 226° |
| 2026-05-06 17:21 | -15.13191 | -48.63307 | 12069 ft | 348 kts | 248° |
| 2026-05-06 17:22 | -15.13694 | -48.65744 | 12042 ft | 348 kts | 271° |
| 2026-05-06 17:22 | -15.13228 | -48.68176 | 12046 ft | 346 kts | 295° |
| 2026-05-06 17:22 | -15.12037 | -48.70329 | 12049 ft | 346 kts | 301° |
| 2026-05-06 17:22 | -15.10914 | -48.72545 | 12053 ft | 348 kts | 299° |
| 2026-05-06 17:23 | -15.10205 | -48.74035 | 12048 ft | 349 kts | 297° |
| 2026-05-06 17:23 | -15.09226 | -48.76339 | 12047 ft | 350 kts | 294° |
| 2026-05-06 17:23 | -15.08339 | -48.78691 | 12054 ft | 350 kts | 289° |
| 2026-05-06 17:23 | -15.07779 | -48.81125 | 12057 ft | 348 kts | 287° |
| 2026-05-06 17:24 | -15.06719 | -48.83338 | 11987 ft | 343 kts | 311° |
| 2026-05-06 17:24 | -15.04903 | -48.84875 | 12026 ft | 337 kts | 337° |
| 2026-05-06 17:24 | -15.02663 | -48.85450 | 12040 ft | 331 kts | 2° |
| 2026-05-06 17:24 | -15.00436 | -48.85028 | 12047 ft | 326 kts | 25° |
| 2026-05-06 17:25 | -14.98586 | -48.83725 | 12023 ft | 323 kts | 48° |
| 2026-05-06 17:25 | -14.97372 | -48.81794 | 12038 ft | 321 kts | 69° |
| 2026-05-06 17:25 | -14.96911 | -48.79555 | 12036 ft | 321 kts | 88° |
| 2026-05-06 17:25 | -14.97199 | -48.77265 | 12040 ft | 325 kts | 104° |
| 2026-05-06 17:26 | -14.97896 | -48.75043 | 12048 ft | 326 kts | 107° |
| 2026-05-06 17:26 | -14.98645 | -48.72837 | 12039 ft | 325 kts | 108° |
| 2026-05-06 17:26 | -14.99414 | -48.70671 | 12051 ft | 313 kts | 109° |
| 2026-05-06 17:26 | -15.00160 | -48.68609 | 12046 ft | 300 kts | 109° |
| 2026-05-06 17:27 | -15.00883 | -48.66637 | 12050 ft | 287 kts | 110° |
| 2026-05-06 17:27 | -15.01590 | -48.64723 | 12049 ft | 283 kts | 109° |
| 2026-05-06 17:27 | -15.02294 | -48.62828 | 12039 ft | 282 kts | 109° |
| 2026-05-06 17:27 | -15.03209 | -48.61029 | 12020 ft | 295 kts | 128° |
| 2026-05-06 17:28 | -15.04841 | -48.59648 | 12017 ft | 315 kts | 152° |
| 2026-05-06 17:28 | -15.06997 | -48.59037 | 12031 ft | 330 kts | 175° |
| 2026-05-06 17:28 | -15.09293 | -48.59345 | 12036 ft | 339 kts | 197° |
| 2026-05-06 17:28 | -15.11365 | -48.60538 | 12043 ft | 345 kts | 218° |
| 2026-05-06 17:29 | -15.12906 | -48.62445 | 12004 ft | 349 kts | 241° |
| 2026-05-06 17:29 | -15.13667 | -48.64811 | 12052 ft | 349 kts | 263° |
| 2026-05-06 17:29 | -15.13540 | -48.67302 | 12041 ft | 347 kts | 287° |
| 2026-05-06 17:29 | -15.12516 | -48.69533 | 12055 ft | 344 kts | 302° |
| 2026-05-06 17:30 | -15.11392 | -48.71719 | 12029 ft | 345 kts | 297° |
| 2026-05-06 17:30 | -15.10365 | -48.73971 | 12041 ft | 346 kts | 295° |
| 2026-05-06 17:30 | -15.09402 | -48.76256 | 12043 ft | 347 kts | 292° |
| 2026-05-06 17:30 | -15.08569 | -48.78611 | 12039 ft | 349 kts | 287° |
| 2026-05-06 17:31 | -15.07878 | -48.81009 | 12039 ft | 346 kts | 296° |
| 2026-05-06 17:31 | -15.06488 | -48.82987 | 12009 ft | 340 kts | 322° |
| 2026-05-06 17:31 | -15.04442 | -48.84147 | 12037 ft | 335 kts | 346° |
| 2026-05-06 17:31 | -15.02156 | -48.84338 | 12034 ft | 330 kts | 10° |
| 2026-05-06 17:32 | -15.00022 | -48.83554 | 12064 ft | 325 kts | 33° |
| 2026-05-06 17:32 | -14.98381 | -48.81990 | 12072 ft | 322 kts | 56° |
| 2026-05-06 17:32 | -14.97455 | -48.79908 | 12038 ft | 321 kts | 77° |
| 2026-05-06 17:32 | -14.97332 | -48.77607 | 12044 ft | 323 kts | 97° |
| 2026-05-06 17:33 | -14.97891 | -48.75360 | 12044 ft | 323 kts | 106° |
| 2026-05-06 17:33 | -14.98594 | -48.73144 | 12034 ft | 325 kts | 108° |
| 2026-05-06 17:33 | -14.99341 | -48.70958 | 12044 ft | 316 kts | 109° |
| 2026-05-06 17:33 | -15.00085 | -48.68868 | 12037 ft | 303 kts | 108° |
| 2026-05-06 17:34 | -15.00808 | -48.66871 | 12037 ft | 289 kts | 109° |
| 2026-05-06 17:34 | -15.01511 | -48.64949 | 12037 ft | 284 kts | 109° |
| 2026-05-06 17:34 | -15.02216 | -48.63043 | 12041 ft | 284 kts | 110° |
| 2026-05-06 17:34 | -15.03072 | -48.61214 | 12036 ft | 295 kts | 125° |
| 2026-05-06 17:35 | -15.04637 | -48.59762 | 12032 ft | 314 kts | 149° |
| 2026-05-06 17:35 | -15.06755 | -48.59037 | 12032 ft | 329 kts | 172° |
| 2026-05-06 17:35 | -15.09054 | -48.59226 | 12032 ft | 338 kts | 194° |
| 2026-05-06 17:36 | -15.12789 | -48.62142 | 12028 ft | 347 kts | 237° |
| 2026-05-06 17:36 | -15.13681 | -48.64458 | 12037 ft | 348 kts | 259° |
| 2026-05-06 17:36 | -15.13676 | -48.66948 | 12032 ft | 348 kts | 284° |
| 2026-05-06 17:36 | -15.12709 | -48.69215 | 12048 ft | 346 kts | 304° |
| 2026-05-06 17:37 | -15.11485 | -48.71362 | 12021 ft | 346 kts | 297° |
| 2026-05-06 17:37 | -15.10461 | -48.73615 | 12039 ft | 347 kts | 295° |
| 2026-05-06 17:37 | -15.09534 | -48.75922 | 12036 ft | 348 kts | 293° |
| 2026-05-06 17:37 | -15.08611 | -48.78243 | 12042 ft | 349 kts | 290° |
| 2026-05-06 17:38 | -15.07756 | -48.80579 | 12031 ft | 346 kts | 300° |
| 2026-05-06 17:38 | -15.06234 | -48.82448 | 12026 ft | 339 kts | 326° |
| 2026-05-06 17:38 | -15.04127 | -48.83462 | 12031 ft | 333 kts | 351° |
| 2026-05-06 17:38 | -15.01842 | -48.83488 | 12018 ft | 328 kts | 15° |
| 2026-05-06 17:39 | -14.99786 | -48.82560 | 12025 ft | 323 kts | 39° |
| 2026-05-06 17:39 | -14.98301 | -48.80878 | 12031 ft | 322 kts | 61° |
| 2026-05-06 17:39 | -14.97566 | -48.78678 | 12038 ft | 321 kts | 83° |
| 2026-05-06 17:39 | -14.97687 | -48.76411 | 12030 ft | 322 kts | 102° |
| 2026-05-06 17:40 | -14.98323 | -48.74174 | 12025 ft | 325 kts | 107° |
| 2026-05-06 17:40 | -14.99031 | -48.71955 | 12016 ft | 323 kts | 108° |
| 2026-05-06 17:40 | -14.99767 | -48.69813 | 12044 ft | 309 kts | 108° |
| 2026-05-06 17:40 | -15.00491 | -48.67775 | 12028 ft | 295 kts | 108° |
| 2026-05-06 17:41 | -15.01197 | -48.65824 | 12029 ft | 286 kts | 109° |
| 2026-05-06 17:41 | -15.01900 | -48.63907 | 12043 ft | 284 kts | 109° |
| 2026-05-06 17:41 | -15.02625 | -48.62004 | 12033 ft | 286 kts | 115° |
| 2026-05-06 17:41 | -15.03861 | -48.60327 | 12017 ft | 305 kts | 138° |
| 2026-05-06 17:42 | -15.05776 | -48.59259 | 11998 ft | 324 kts | 162° |
| 2026-05-06 17:42 | -15.08053 | -48.59064 | 12028 ft | 335 kts | 185° |
| 2026-05-06 17:42 | -15.10291 | -48.59803 | 12031 ft | 343 kts | 207° |
| 2026-05-06 17:42 | -15.12125 | -48.61331 | 12035 ft | 347 kts | 229° |
| 2026-05-06 17:43 | -15.13362 | -48.63466 | 12040 ft | 347 kts | 250° |
| 2026-05-06 17:43 | -15.13794 | -48.65912 | 12030 ft | 348 kts | 272° |
| 2026-05-06 17:43 | -15.13233 | -48.68312 | 12040 ft | 344 kts | 298° |
| 2026-05-06 17:43 | -15.12028 | -48.70458 | 12029 ft | 345 kts | 300° |
| 2026-05-06 17:44 | -15.10926 | -48.72676 | 12022 ft | 347 kts | 298° |
| 2026-05-06 17:44 | -15.09860 | -48.74924 | 12021 ft | 349 kts | 296° |
| 2026-05-06 17:44 | -15.08898 | -48.77236 | 12034 ft | 351 kts | 294° |
| 2026-05-06 17:44 | -15.08034 | -48.79598 | 12016 ft | 349 kts | 294° |
| 2026-05-06 17:45 | -15.06733 | -48.81679 | 12018 ft | 342 kts | 318° |
| 2026-05-06 17:45 | -15.04757 | -48.82978 | 12027 ft | 336 kts | 344° |
| 2026-05-06 17:45 | -15.02510 | -48.83290 | 12022 ft | 329 kts | 7° |
| 2026-05-06 17:45 | -15.00350 | -48.82603 | 12027 ft | 325 kts | 32° |
| 2026-05-06 17:46 | -14.98675 | -48.81077 | 12024 ft | 322 kts | 56° |
| 2026-05-06 17:46 | -14.97742 | -48.79000 | 12015 ft | 320 kts | 77° |
| 2026-05-06 17:46 | -14.97661 | -48.76698 | 12024 ft | 323 kts | 99° |
| 2026-05-06 17:46 | -14.98250 | -48.74445 | 12037 ft | 325 kts | 106° |
| 2026-05-06 17:47 | -14.98947 | -48.72225 | 12008 ft | 323 kts | 107° |
| 2026-05-06 17:47 | -14.99677 | -48.70075 | 12032 ft | 309 kts | 108° |
| 2026-05-06 17:47 | -15.00399 | -48.68035 | 12035 ft | 295 kts | 109° |
| 2026-05-06 17:47 | -15.01104 | -48.66082 | 12039 ft | 285 kts | 109° |
| 2026-05-06 17:48 | -15.01804 | -48.64169 | 12041 ft | 283 kts | 109° |
| 2026-05-06 17:48 | -15.02747 | -48.62330 | 11954 ft | 300 kts | 130° |
| 2026-05-06 17:48 | -15.04453 | -48.61011 | 11793 ft | 317 kts | 152° |
| 2026-05-06 17:48 | -15.06491 | -48.60053 | 11718 ft | 324 kts | 151° |
| 2026-05-06 17:49 | -15.08516 | -48.58978 | 11653 ft | 329 kts | 150° |
| 2026-05-06 17:49 | -15.10560 | -48.57910 | 11588 ft | 329 kts | 151° |
| 2026-05-06 17:49 | -15.12607 | -48.56851 | 11515 ft | 329 kts | 151° |
| 2026-05-06 17:49 | -15.14653 | -48.55798 | 11441 ft | 328 kts | 151° |
| 2026-05-06 17:50 | -15.16701 | -48.54748 | 11361 ft | 328 kts | 152° |
| 2026-05-06 17:50 | -15.18749 | -48.53698 | 11300 ft | 329 kts | 152° |
| 2026-05-06 17:50 | -15.20801 | -48.52646 | 11235 ft | 329 kts | 152° |
| 2026-05-06 17:50 | -15.22821 | -48.51611 | 11167 ft | 329 kts | 152° |
| 2026-05-06 17:51 | -15.24868 | -48.50561 | 11091 ft | 328 kts | 152° |
| 2026-05-06 17:51 | -15.26918 | -48.49510 | 11015 ft | 328 kts | 152° |
| 2026-05-06 17:51 | -15.28958 | -48.48463 | 10943 ft | 327 kts | 151° |
| 2026-05-06 17:51 | -15.31000 | -48.47415 | 10874 ft | 327 kts | 151° |
| 2026-05-06 17:52 | -15.33038 | -48.46372 | 10803 ft | 327 kts | 151° |
| 2026-05-06 17:52 | -15.35079 | -48.45323 | 10732 ft | 326 kts | 152° |
| 2026-05-06 17:52 | -15.37096 | -48.44289 | 10659 ft | 319 kts | 152° |
| 2026-05-06 17:52 | -15.39054 | -48.43285 | 10596 ft | 308 kts | 151° |
| 2026-05-06 17:53 | -15.40939 | -48.42320 | 10531 ft | 297 kts | 151° |
| 2026-05-06 17:53 | -15.42760 | -48.41387 | 10455 ft | 286 kts | 150° |
| 2026-05-06 17:53 | -15.44506 | -48.40491 | 10383 ft | 275 kts | 152° |
| 2026-05-06 17:53 | -15.46186 | -48.39628 | 10311 ft | 265 kts | 151° |
| 2026-05-06 17:54 | -15.47831 | -48.38784 | 10239 ft | 266 kts | 151° |
| 2026-05-06 17:54 | -15.49525 | -48.37910 | 10199 ft | 275 kts | 150° |
| 2026-05-06 17:54 | -15.51257 | -48.37018 | 10180 ft | 280 kts | 151° |
| 2026-05-06 17:54 | -15.53008 | -48.36117 | 10190 ft | 281 kts | 151° |
| 2026-05-06 17:55 | -15.54738 | -48.35227 | 10185 ft | 281 kts | 151° |
| 2026-05-06 17:55 | -15.56490 | -48.34325 | 10171 ft | 281 kts | 150° |
| 2026-05-06 17:55 | -15.58241 | -48.33423 | 10095 ft | 280 kts | 150° |
| 2026-05-06 17:55 | -15.59981 | -48.32527 | 9950 ft | 280 kts | 150° |
| 2026-05-06 17:56 | -15.61729 | -48.31628 | 9691 ft | 280 kts | 150° |
| 2026-05-06 17:56 | -15.63476 | -48.30729 | 9409 ft | 279 kts | 150° |
| 2026-05-06 17:56 | -15.65207 | -48.29839 | 9149 ft | 276 kts | 150° |
| 2026-05-06 17:56 | -15.66911 | -48.28962 | 8919 ft | 272 kts | 151° |
| 2026-05-06 17:57 | -15.68590 | -48.28099 | 8670 ft | 269 kts | 150° |
| 2026-05-06 17:57 | -15.70255 | -48.27241 | 8437 ft | 266 kts | 150° |
| 2026-05-06 17:57 | -15.71905 | -48.26392 | 8184 ft | 264 kts | 150° |
| 2026-05-06 17:57 | -15.73542 | -48.25549 | 7935 ft | 261 kts | 150° |
| 2026-05-06 17:58 | -15.75155 | -48.24718 | 7771 ft | 256 kts | 150° |
| 2026-05-06 17:58 | -15.76741 | -48.23900 | 7535 ft | 254 kts | 151° |
| 2026-05-06 17:58 | -15.78304 | -48.23089 | 7267 ft | 254 kts | 148° |
| 2026-05-06 17:58 | -15.79631 | -48.21922 | 6975 ft | 249 kts | 129° |
| 2026-05-06 17:59 | -15.80796 | -48.20611 | 6762 ft | 245 kts | 130° |
| 2026-05-06 17:59 | -15.81954 | -48.19325 | 6534 ft | 242 kts | 130° |
| 2026-05-06 17:59 | -15.83094 | -48.18049 | 6296 ft | 240 kts | 130° |
| 2026-05-06 17:59 | -15.84223 | -48.16788 | 6087 ft | 236 kts | 131° |
| 2026-05-06 18:00 | -15.85319 | -48.15565 | 6045 ft | 225 kts | 131° |
| 2026-05-06 18:00 | -15.86349 | -48.14415 | 6072 ft | 210 kts | 130° |
| 2026-05-06 18:00 | -15.87298 | -48.13353 | 6091 ft | 193 kts | 130° |
| 2026-05-06 18:00 | -15.88174 | -48.12377 | 6079 ft | 180 kts | 130° |
| 2026-05-06 18:01 | -15.88820 | -48.11295 | 6024 ft | 175 kts | 102° |
| 2026-05-06 18:01 | -15.88930 | -48.10054 | 6110 ft | 173 kts | 93° |
| 2026-05-06 18:01 | -15.88970 | -48.08799 | 6121 ft | 174 kts | 90° |
| 2026-05-06 18:01 | -15.88932 | -48.07568 | 5956 ft | 161 kts | 88° |
| 2026-05-06 18:02 | -15.88864 | -48.06467 | 5756 ft | 148 kts | 86° |
| 2026-05-06 18:02 | -15.88798 | -48.05419 | 5623 ft | 147 kts | 86° |
| 2026-05-06 18:02 | -15.88731 | -48.04363 | 5414 ft | 145 kts | 87° |
| 2026-05-06 18:02 | -15.88662 | -48.03326 | 5223 ft | 141 kts | 86° |
| 2026-05-06 18:03 | -15.88599 | -48.02319 | 5072 ft | 140 kts | 87° |
| 2026-05-06 18:03 | -15.88539 | -48.01305 | 4886 ft | 142 kts | 88° |
| 2026-05-06 18:03 | -15.88484 | -48.00256 | 4594 ft | 147 kts | 86° |
| 2026-05-06 18:03 | -15.88401 | -47.99217 | 4452 ft | 145 kts | 88° |
| 2026-05-06 18:04 | -15.88359 | -47.98157 | 4380 ft | 141 kts | 86° |
| 2026-05-06 18:04 | -15.88271 | -47.97160 | 4221 ft | 137 kts | 86° |
| 2026-05-06 18:04 | -15.88209 | -47.96201 | 3942 ft | 134 kts | 88° |
| 2026-05-06 18:04 | -15.88144 | -47.95193 | 3747 ft | 144 kts | 87° |
| 2026-05-06 18:05 | -15.88076 | -47.94146 | 3569 ft | 144 kts | 87° |
| 2026-05-06 18:05 | -15.88012 | -47.93136 | 3481 ft | 129 kts | 85° |
| 2026-05-06 18:05 | -15.87965 | -47.92419 | 3476 ft | 78 kts | 86° |
| 2026-05-06 18:05 | -15.87931 | -47.91965 | 3465 ft | 39 kts | 78° |
| 2026-05-06 18:06 | -15.87860 | -47.91782 | 3459 ft | 23 kts | 59° |
| 2026-05-06 18:06 | -15.87767 | -47.91632 | 3458 ft | 25 kts | 57° |
| 2026-05-06 18:06 | -15.87692 | -47.91554 | 3459 ft | 12 kts | 17° |
| 2026-05-06 18:06 | -15.87606 | -47.91555 | 3462 ft | 13 kts | 355° |
| 2026-05-06 18:07 | -15.87528 | -47.91561 | 3464 ft | 10 kts | 355° |
| 2026-05-06 18:07 | -15.87478 | -47.91565 | 3469 ft | 4 kts | 357° |
| 2026-05-06 18:07 | -15.87467 | -47.91565 | 3471 ft | 2 kts | 357° |
| 2026-05-06 18:07 | -15.87419 | -47.91568 | 3473 ft | 16 kts | 357° |
| 2026-05-06 18:08 | -15.87299 | -47.91576 | 3471 ft | 16 kts | 356° |
| 2026-05-06 18:08 | -15.87190 | -47.91583 | 3474 ft | 16 kts | 357° |
| 2026-05-06 18:08 | -15.87083 | -47.91591 | 3477 ft | 15 kts | 339° |
| 2026-05-06 18:08 | -15.87063 | -47.91673 | 3477 ft | 9 kts | 239° |
| 2026-05-06 18:09 | -15.87103 | -47.91707 | 3479 ft | 8 kts | 236° |
| 2026-05-06 18:09 | -15.87123 | -47.91739 | 3476 ft | 0 kts | 237° |